sensor_id;sensor_type;location;lat;lon;timestamp;P1;durP1;ratioP1;P2;durP2;ratioP2
56770;SDS011;42641;59.794;17.616;2024-01-30T00:00:20;47.73;;;13.20;;
56770;SDS011;42641;59.794;17.616;2024-01-30T00:02:47;60.97;;;12.40;;
56770;SDS011;42641;59.794;17.616;2024-01-30T00:05:13;63.70;;;12.60;;
56770;SDS011;42641;59.794;17.616;2024-01-30T00:07:40;31.60;;;11.07;;
56770;SDS011;42641;59.794;17.616;2024-01-30T00:10:06;53.87;;;11.83;;
56770;SDS011;42641;59.794;17.616;2024-01-30T00:12:32;21.17;;;9.07;;
56770;SDS011;42641;59.794;17.616;2024-01-30T00:14:59;31.50;;;10.80;;
56770;SDS011;42641;59.794;17.616;2024-01-30T00:17:25;18.67;;;8.10;;
56770;SDS011;42641;59.794;17.616;2024-01-30T00:19:52;57.70;;;12.17;;
56770;SDS011;42641;59.794;17.616;2024-01-30T00:22:18;48.77;;;12.70;;
56770;SDS011;42641;59.794;17.616;2024-01-30T00:24:45;173.03;;;19.53;;
56770;SDS011;42641;59.794;17.616;2024-01-30T00:27:11;284.43;;;25.90;;
56770;SDS011;42641;59.794;17.616;2024-01-30T00:29:37;52.33;;;12.77;;
56770;SDS011;42641;59.794;17.616;2024-01-30T00:32:04;54.13;;;13.53;;
56770;SDS011;42641;59.794;17.616;2024-01-30T00:34:31;53.73;;;12.23;;
56770;SDS011;42641;59.794;17.616;2024-01-30T00:36:57;109.73;;;15.83;;
56770;SDS011;42641;59.794;17.616;2024-01-30T00:39:24;17.57;;;8.30;;
56770;SDS011;42641;59.794;17.616;2024-01-30T00:41:50;11.33;;;7.50;;
56770;SDS011;42641;59.794;17.616;2024-01-30T00:44:16;33.10;;;11.13;;
56770;SDS011;42641;59.794;17.616;2024-01-30T00:46:43;32.27;;;9.87;;
56770;SDS011;42641;59.794;17.616;2024-01-30T00:49:10;76.87;;;11.90;;
56770;SDS011;42641;59.794;17.616;2024-01-30T00:51:36;95.40;;;11.37;;
56770;SDS011;42641;59.794;17.616;2024-01-30T00:54:02;66.13;;;10.70;;
56770;SDS011;42641;59.794;17.616;2024-01-30T00:56:29;82.73;;;9.77;;
56770;SDS011;42641;59.794;17.616;2024-01-30T00:58:55;72.00;;;12.80;;
56770;SDS011;42641;59.794;17.616;2024-01-30T01:01:22;26.50;;;9.47;;
56770;SDS011;42641;59.794;17.616;2024-01-30T01:03:49;31.87;;;7.90;;
56770;SDS011;42641;59.794;17.616;2024-01-30T01:06:15;41.27;;;8.63;;
56770;SDS011;42641;59.794;17.616;2024-01-30T01:08:42;54.43;;;9.30;;
56770;SDS011;42641;59.794;17.616;2024-01-30T01:11:08;30.23;;;8.30;;
56770;SDS011;42641;59.794;17.616;2024-01-30T01:13:35;24.87;;;8.30;;
56770;SDS011;42641;59.794;17.616;2024-01-30T01:16:01;27.73;;;9.43;;
56770;SDS011;42641;59.794;17.616;2024-01-30T01:18:28;59.37;;;8.53;;
56770;SDS011;42641;59.794;17.616;2024-01-30T01:20:54;59.27;;;10.67;;
56770;SDS011;42641;59.794;17.616;2024-01-30T01:23:20;111.47;;;12.73;;
56770;SDS011;42641;59.794;17.616;2024-01-30T01:25:47;73.47;;;12.13;;
56770;SDS011;42641;59.794;17.616;2024-01-30T01:28:13;53.77;;;10.43;;
56770;SDS011;42641;59.794;17.616;2024-01-30T01:30:39;32.03;;;8.53;;
56770;SDS011;42641;59.794;17.616;2024-01-30T01:33:06;31.43;;;8.37;;
56770;SDS011;42641;59.794;17.616;2024-01-30T01:35:32;17.43;;;7.50;;
56770;SDS011;42641;59.794;17.616;2024-01-30T01:37:59;29.97;;;8.53;;
56770;SDS011;42641;59.794;17.616;2024-01-30T01:40:27;51.87;;;9.77;;
56770;SDS011;42641;59.794;17.616;2024-01-30T01:42:54;57.00;;;11.13;;
56770;SDS011;42641;59.794;17.616;2024-01-30T01:45:21;49.70;;;8.47;;
56770;SDS011;42641;59.794;17.616;2024-01-30T01:47:50;35.93;;;10.70;;
56770;SDS011;42641;59.794;17.616;2024-01-30T01:50:17;79.87;;;12.47;;
56770;SDS011;42641;59.794;17.616;2024-01-30T01:52:46;95.10;;;14.60;;
56770;SDS011;42641;59.794;17.616;2024-01-30T01:55:14;170.63;;;17.57;;
56770;SDS011;42641;59.794;17.616;2024-01-30T01:57:42;17.50;;;7.63;;
56770;SDS011;42641;59.794;17.616;2024-01-30T02:00:08;15.67;;;7.17;;
56770;SDS011;42641;59.794;17.616;2024-01-30T02:02:36;28.40;;;8.40;;
56770;SDS011;42641;59.794;17.616;2024-01-30T02:05:04;38.90;;;8.87;;
56770;SDS011;42641;59.794;17.616;2024-01-30T02:07:31;37.87;;;9.53;;
56770;SDS011;42641;59.794;17.616;2024-01-30T02:09:58;18.00;;;7.13;;
56770;SDS011;42641;59.794;17.616;2024-01-30T02:12:24;43.20;;;8.57;;
56770;SDS011;42641;59.794;17.616;2024-01-30T02:14:50;79.10;;;12.27;;
56770;SDS011;42641;59.794;17.616;2024-01-30T02:17:17;16.70;;;6.93;;
56770;SDS011;42641;59.794;17.616;2024-01-30T02:19:44;14.60;;;6.57;;
56770;SDS011;42641;59.794;17.616;2024-01-30T02:22:10;25.57;;;8.63;;
56770;SDS011;42641;59.794;17.616;2024-01-30T02:24:36;12.47;;;6.87;;
56770;SDS011;42641;59.794;17.616;2024-01-30T02:27:03;20.23;;;6.13;;
56770;SDS011;42641;59.794;17.616;2024-01-30T02:29:29;10.97;;;6.80;;
56770;SDS011;42641;59.794;17.616;2024-01-30T02:31:56;18.67;;;7.70;;
56770;SDS011;42641;59.794;17.616;2024-01-30T02:34:23;26.20;;;8.30;;
56770;SDS011;42641;59.794;17.616;2024-01-30T02:36:50;21.77;;;9.37;;
56770;SDS011;42641;59.794;17.616;2024-01-30T02:39:16;22.47;;;8.77;;
56770;SDS011;42641;59.794;17.616;2024-01-30T02:41:42;76.63;;;12.37;;
56770;SDS011;42641;59.794;17.616;2024-01-30T02:44:09;23.63;;;9.63;;
56770;SDS011;42641;59.794;17.616;2024-01-30T02:46:35;20.87;;;7.93;;
56770;SDS011;42641;59.794;17.616;2024-01-30T02:49:01;12.60;;;7.40;;
56770;SDS011;42641;59.794;17.616;2024-01-30T02:51:28;89.00;;;14.53;;
56770;SDS011;42641;59.794;17.616;2024-01-30T02:53:54;95.03;;;15.03;;
56770;SDS011;42641;59.794;17.616;2024-01-30T02:56:21;95.00;;;14.97;;
56770;SDS011;42641;59.794;17.616;2024-01-30T02:58:47;65.20;;;11.63;;
56770;SDS011;42641;59.794;17.616;2024-01-30T03:01:14;38.07;;;9.43;;
56770;SDS011;42641;59.794;17.616;2024-01-30T03:03:40;23.30;;;7.23;;
56770;SDS011;42641;59.794;17.616;2024-01-30T03:06:08;32.90;;;8.57;;
56770;SDS011;42641;59.794;17.616;2024-01-30T03:08:34;65.70;;;13.10;;
56770;SDS011;42641;59.794;17.616;2024-01-30T03:11:01;49.47;;;12.00;;
56770;SDS011;42641;59.794;17.616;2024-01-30T03:13:27;111.20;;;17.50;;
56770;SDS011;42641;59.794;17.616;2024-01-30T03:15:53;47.87;;;12.17;;
56770;SDS011;42641;59.794;17.616;2024-01-30T03:18:20;50.30;;;11.07;;
56770;SDS011;42641;59.794;17.616;2024-01-30T03:20:46;80.77;;;14.20;;
56770;SDS011;42641;59.794;17.616;2024-01-30T03:23:13;76.97;;;13.23;;
56770;SDS011;42641;59.794;17.616;2024-01-30T03:25:39;107.17;;;15.03;;
56770;SDS011;42641;59.794;17.616;2024-01-30T03:28:05;59.73;;;12.70;;
56770;SDS011;42641;59.794;17.616;2024-01-30T03:30:32;39.90;;;8.03;;
56770;SDS011;42641;59.794;17.616;2024-01-30T03:32:59;23.37;;;6.93;;
56770;SDS011;42641;59.794;17.616;2024-01-30T03:35:26;170.83;;;19.10;;
56770;SDS011;42641;59.794;17.616;2024-01-30T03:37:52;74.80;;;14.37;;
56770;SDS011;42641;59.794;17.616;2024-01-30T03:40:19;95.60;;;15.13;;
56770;SDS011;42641;59.794;17.616;2024-01-30T03:42:45;112.63;;;17.57;;
56770;SDS011;42641;59.794;17.616;2024-01-30T03:45:11;120.50;;;17.73;;
56770;SDS011;42641;59.794;17.616;2024-01-30T03:47:38;118.20;;;16.47;;
56770;SDS011;42641;59.794;17.616;2024-01-30T03:50:04;139.93;;;16.80;;
56770;SDS011;42641;59.794;17.616;2024-01-30T03:52:31;26.93;;;8.03;;
56770;SDS011;42641;59.794;17.616;2024-01-30T03:54:57;19.83;;;7.43;;
56770;SDS011;42641;59.794;17.616;2024-01-30T03:57:24;28.20;;;8.00;;
56770;SDS011;42641;59.794;17.616;2024-01-30T03:59:50;37.33;;;9.03;;
56770;SDS011;42641;59.794;17.616;2024-01-30T04:02:16;41.20;;;9.37;;
56770;SDS011;42641;59.794;17.616;2024-01-30T04:04:43;60.67;;;11.60;;
56770;SDS011;42641;59.794;17.616;2024-01-30T04:07:10;66.87;;;12.53;;
56770;SDS011;42641;59.794;17.616;2024-01-30T04:09:36;61.63;;;11.33;;
56770;SDS011;42641;59.794;17.616;2024-01-30T04:12:04;57.77;;;12.53;;
56770;SDS011;42641;59.794;17.616;2024-01-30T04:14:31;74.83;;;13.50;;
56770;SDS011;42641;59.794;17.616;2024-01-30T04:16:57;71.00;;;12.90;;
56770;SDS011;42641;59.794;17.616;2024-01-30T04:19:23;116.97;;;17.87;;
56770;SDS011;42641;59.794;17.616;2024-01-30T04:21:50;56.73;;;11.53;;
56770;SDS011;42641;59.794;17.616;2024-01-30T04:24:17;66.90;;;12.10;;
56770;SDS011;42641;59.794;17.616;2024-01-30T04:26:44;65.87;;;14.27;;
56770;SDS011;42641;59.794;17.616;2024-01-30T04:29:10;25.93;;;8.07;;
56770;SDS011;42641;59.794;17.616;2024-01-30T04:31:37;29.67;;;9.63;;
56770;SDS011;42641;59.794;17.616;2024-01-30T04:34:03;51.40;;;11.60;;
56770;SDS011;42641;59.794;17.616;2024-01-30T04:36:30;81.30;;;13.87;;
56770;SDS011;42641;59.794;17.616;2024-01-30T04:38:56;38.27;;;9.87;;
56770;SDS011;42641;59.794;17.616;2024-01-30T04:41:22;18.93;;;7.53;;
56770;SDS011;42641;59.794;17.616;2024-01-30T04:43:49;16.60;;;6.83;;
56770;SDS011;42641;59.794;17.616;2024-01-30T04:46:15;10.63;;;6.63;;
56770;SDS011;42641;59.794;17.616;2024-01-30T04:48:42;13.10;;;6.17;;
56770;SDS011;42641;59.794;17.616;2024-01-30T04:51:08;16.37;;;6.30;;
56770;SDS011;42641;59.794;17.616;2024-01-30T04:53:35;13.63;;;5.67;;
56770;SDS011;42641;59.794;17.616;2024-01-30T04:56:01;12.23;;;6.30;;
56770;SDS011;42641;59.794;17.616;2024-01-30T04:58:27;13.53;;;5.57;;
56770;SDS011;42641;59.794;17.616;2024-01-30T05:00:54;12.07;;;5.63;;
56770;SDS011;42641;59.794;17.616;2024-01-30T05:03:20;8.67;;;5.73;;
56770;SDS011;42641;59.794;17.616;2024-01-30T05:05:48;13.23;;;5.83;;
56770;SDS011;42641;59.794;17.616;2024-01-30T05:08:15;26.00;;;6.23;;
56770;SDS011;42641;59.794;17.616;2024-01-30T05:10:41;10.17;;;5.40;;
56770;SDS011;42641;59.794;17.616;2024-01-30T05:13:07;15.90;;;6.17;;
56770;SDS011;42641;59.794;17.616;2024-01-30T05:15:34;69.33;;;8.73;;
56770;SDS011;42641;59.794;17.616;2024-01-30T05:18:00;46.87;;;9.83;;
56770;SDS011;42641;59.794;17.616;2024-01-30T05:20:27;37.37;;;8.90;;
56770;SDS011;42641;59.794;17.616;2024-01-30T05:22:54;12.60;;;6.73;;
56770;SDS011;42641;59.794;17.616;2024-01-30T05:25:20;17.27;;;7.40;;
56770;SDS011;42641;59.794;17.616;2024-01-30T05:27:47;19.63;;;7.67;;
56770;SDS011;42641;59.794;17.616;2024-01-30T05:30:13;37.00;;;8.17;;
56770;SDS011;42641;59.794;17.616;2024-01-30T05:32:40;17.00;;;8.17;;
56770;SDS011;42641;59.794;17.616;2024-01-30T05:35:06;49.20;;;9.47;;
56770;SDS011;42641;59.794;17.616;2024-01-30T05:37:33;78.57;;;11.40;;
56770;SDS011;42641;59.794;17.616;2024-01-30T05:40:00;64.70;;;11.13;;
56770;SDS011;42641;59.794;17.616;2024-01-30T05:42:26;51.90;;;9.47;;
56770;SDS011;42641;59.794;17.616;2024-01-30T05:44:53;36.03;;;7.03;;
56770;SDS011;42641;59.794;17.616;2024-01-30T05:47:19;20.83;;;7.73;;
56770;SDS011;42641;59.794;17.616;2024-01-30T05:49:45;28.03;;;6.33;;
56770;SDS011;42641;59.794;17.616;2024-01-30T05:52:12;25.57;;;5.40;;
56770;SDS011;42641;59.794;17.616;2024-01-30T05:54:39;12.33;;;5.93;;
56770;SDS011;42641;59.794;17.616;2024-01-30T05:57:06;9.73;;;5.43;;
56770;SDS011;42641;59.794;17.616;2024-01-30T05:59:32;7.10;;;4.77;;
56770;SDS011;42641;59.794;17.616;2024-01-30T06:01:58;15.27;;;7.23;;
56770;SDS011;42641;59.794;17.616;2024-01-30T06:04:25;18.70;;;7.17;;
56770;SDS011;42641;59.794;17.616;2024-01-30T06:06:51;8.73;;;5.77;;
56770;SDS011;42641;59.794;17.616;2024-01-30T06:09:17;15.63;;;7.57;;
56770;SDS011;42641;59.794;17.616;2024-01-30T06:11:44;17.77;;;7.07;;
56770;SDS011;42641;59.794;17.616;2024-01-30T06:14:10;22.83;;;9.23;;
56770;SDS011;42641;59.794;17.616;2024-01-30T06:16:37;6.23;;;5.03;;
56770;SDS011;42641;59.794;17.616;2024-01-30T06:19:04;17.83;;;7.80;;
56770;SDS011;42641;59.794;17.616;2024-01-30T06:21:31;21.57;;;7.83;;
56770;SDS011;42641;59.794;17.616;2024-01-30T06:24:02;15.23;;;8.53;;
56770;SDS011;42641;59.794;17.616;2024-01-30T06:26:29;23.10;;;7.70;;
56770;SDS011;42641;59.794;17.616;2024-01-30T06:28:55;14.67;;;6.40;;
56770;SDS011;42641;59.794;17.616;2024-01-30T06:31:21;32.83;;;9.67;;
56770;SDS011;42641;59.794;17.616;2024-01-30T06:33:48;38.73;;;9.40;;
56770;SDS011;42641;59.794;17.616;2024-01-30T06:36:15;29.83;;;9.07;;
56770;SDS011;42641;59.794;17.616;2024-01-30T06:38:41;77.77;;;13.43;;
56770;SDS011;42641;59.794;17.616;2024-01-30T06:41:08;72.37;;;11.37;;
56770;SDS011;42641;59.794;17.616;2024-01-30T06:43:34;67.70;;;14.93;;
56770;SDS011;42641;59.794;17.616;2024-01-30T06:46:00;21.43;;;8.07;;
56770;SDS011;42641;59.794;17.616;2024-01-30T06:48:27;27.53;;;9.07;;
56770;SDS011;42641;59.794;17.616;2024-01-30T06:50:53;21.60;;;8.23;;
56770;SDS011;42641;59.794;17.616;2024-01-30T06:53:20;22.30;;;7.97;;
56770;SDS011;42641;59.794;17.616;2024-01-30T06:55:46;25.50;;;7.70;;
56770;SDS011;42641;59.794;17.616;2024-01-30T06:58:13;36.43;;;8.77;;
56770;SDS011;42641;59.794;17.616;2024-01-30T07:00:39;29.67;;;8.00;;
56770;SDS011;42641;59.794;17.616;2024-01-30T07:03:06;35.00;;;8.33;;
56770;SDS011;42641;59.794;17.616;2024-01-30T07:05:32;21.63;;;7.10;;
56770;SDS011;42641;59.794;17.616;2024-01-30T07:08:00;32.33;;;7.30;;
56770;SDS011;42641;59.794;17.616;2024-01-30T07:10:26;29.97;;;7.93;;
56770;SDS011;42641;59.794;17.616;2024-01-30T07:12:53;45.53;;;7.77;;
56770;SDS011;42641;59.794;17.616;2024-01-30T07:15:19;40.93;;;7.40;;
56770;SDS011;42641;59.794;17.616;2024-01-30T07:17:46;20.17;;;5.93;;
56770;SDS011;42641;59.794;17.616;2024-01-30T07:20:12;10.47;;;6.10;;
56770;SDS011;42641;59.794;17.616;2024-01-30T07:22:39;12.20;;;5.97;;
56770;SDS011;42641;59.794;17.616;2024-01-30T07:25:06;10.67;;;5.03;;
56770;SDS011;42641;59.794;17.616;2024-01-30T07:27:33;10.70;;;6.33;;
56770;SDS011;42641;59.794;17.616;2024-01-30T07:30:00;9.07;;;5.77;;
56770;SDS011;42641;59.794;17.616;2024-01-30T07:32:26;19.33;;;7.70;;
56770;SDS011;42641;59.794;17.616;2024-01-30T07:34:52;14.00;;;6.40;;
56770;SDS011;42641;59.794;17.616;2024-01-30T07:37:19;14.73;;;6.37;;
56770;SDS011;42641;59.794;17.616;2024-01-30T07:39:45;21.70;;;7.03;;
56770;SDS011;42641;59.794;17.616;2024-01-30T07:42:13;12.50;;;6.37;;
56770;SDS011;42641;59.794;17.616;2024-01-30T07:44:39;15.10;;;6.60;;
56770;SDS011;42641;59.794;17.616;2024-01-30T07:47:05;16.37;;;6.60;;
56770;SDS011;42641;59.794;17.616;2024-01-30T07:49:32;24.00;;;7.43;;
56770;SDS011;42641;59.794;17.616;2024-01-30T07:51:59;29.60;;;7.03;;
56770;SDS011;42641;59.794;17.616;2024-01-30T07:54:25;36.00;;;8.33;;
56770;SDS011;42641;59.794;17.616;2024-01-30T07:56:52;22.57;;;6.83;;
56770;SDS011;42641;59.794;17.616;2024-01-30T07:59:18;23.00;;;7.03;;
56770;SDS011;42641;59.794;17.616;2024-01-30T08:01:47;15.77;;;6.83;;
56770;SDS011;42641;59.794;17.616;2024-01-30T08:04:13;29.13;;;7.53;;
56770;SDS011;42641;59.794;17.616;2024-01-30T08:06:40;16.53;;;7.00;;
56770;SDS011;42641;59.794;17.616;2024-01-30T08:09:06;25.43;;;6.77;;
56770;SDS011;42641;59.794;17.616;2024-01-30T08:11:33;18.30;;;7.13;;
56770;SDS011;42641;59.794;17.616;2024-01-30T08:13:59;9.80;;;5.43;;
56770;SDS011;42641;59.794;17.616;2024-01-30T08:16:25;24.67;;;6.30;;
56770;SDS011;42641;59.794;17.616;2024-01-30T08:18:52;14.00;;;5.70;;
56770;SDS011;42641;59.794;17.616;2024-01-30T08:21:19;33.60;;;7.17;;
56770;SDS011;42641;59.794;17.616;2024-01-30T08:23:45;57.77;;;7.43;;
56770;SDS011;42641;59.794;17.616;2024-01-30T08:26:12;38.83;;;7.70;;
56770;SDS011;42641;59.794;17.616;2024-01-30T08:28:38;32.70;;;7.13;;
56770;SDS011;42641;59.794;17.616;2024-01-30T08:31:04;26.00;;;6.97;;
56770;SDS011;42641;59.794;17.616;2024-01-30T08:33:31;61.70;;;8.63;;
56770;SDS011;42641;59.794;17.616;2024-01-30T08:35:57;23.23;;;6.20;;
56770;SDS011;42641;59.794;17.616;2024-01-30T08:38:23;30.00;;;6.80;;
56770;SDS011;42641;59.794;17.616;2024-01-30T08:40:50;36.37;;;6.83;;
56770;SDS011;42641;59.794;17.616;2024-01-30T08:43:17;32.17;;;6.97;;
56770;SDS011;42641;59.794;17.616;2024-01-30T08:45:43;24.20;;;7.83;;
56770;SDS011;42641;59.794;17.616;2024-01-30T08:48:09;37.73;;;7.87;;
56770;SDS011;42641;59.794;17.616;2024-01-30T08:50:36;59.17;;;9.63;;
56770;SDS011;42641;59.794;17.616;2024-01-30T08:53:02;49.40;;;7.47;;
56770;SDS011;42641;59.794;17.616;2024-01-30T08:55:29;61.33;;;9.27;;
56770;SDS011;42641;59.794;17.616;2024-01-30T08:57:55;38.63;;;8.23;;
56770;SDS011;42641;59.794;17.616;2024-01-30T09:00:21;29.37;;;6.17;;
56770;SDS011;42641;59.794;17.616;2024-01-30T09:02:48;35.57;;;6.50;;
56770;SDS011;42641;59.794;17.616;2024-01-30T09:05:14;35.10;;;7.00;;
56770;SDS011;42641;59.794;17.616;2024-01-30T09:07:40;54.40;;;8.43;;
56770;SDS011;42641;59.794;17.616;2024-01-30T09:10:07;28.53;;;6.63;;
56770;SDS011;42641;59.794;17.616;2024-01-30T09:12:33;36.20;;;7.73;;
56770;SDS011;42641;59.794;17.616;2024-01-30T09:15:00;30.00;;;5.40;;
56770;SDS011;42641;59.794;17.616;2024-01-30T09:17:26;33.37;;;7.43;;
56770;SDS011;42641;59.794;17.616;2024-01-30T09:19:52;24.70;;;6.50;;
56770;SDS011;42641;59.794;17.616;2024-01-30T09:22:19;33.57;;;6.37;;
56770;SDS011;42641;59.794;17.616;2024-01-30T09:24:45;48.07;;;7.80;;
56770;SDS011;42641;59.794;17.616;2024-01-30T09:27:11;49.97;;;7.80;;
56770;SDS011;42641;59.794;17.616;2024-01-30T09:29:38;38.33;;;7.33;;
56770;SDS011;42641;59.794;17.616;2024-01-30T09:32:05;39.93;;;7.60;;
56770;SDS011;42641;59.794;17.616;2024-01-30T09:34:32;41.30;;;7.83;;
56770;SDS011;42641;59.794;17.616;2024-01-30T09:36:59;55.73;;;7.80;;
56770;SDS011;42641;59.794;17.616;2024-01-30T09:39:26;43.73;;;8.17;;
56770;SDS011;42641;59.794;17.616;2024-01-30T09:41:57;42.43;;;7.80;;
56770;SDS011;42641;59.794;17.616;2024-01-30T09:44:43;69.27;;;8.00;;
56770;SDS011;42641;59.794;17.616;2024-01-30T09:47:10;37.20;;;6.53;;
56770;SDS011;42641;59.794;17.616;2024-01-30T09:49:36;56.07;;;7.10;;
56770;SDS011;42641;59.794;17.616;2024-01-30T09:52:07;36.30;;;5.90;;
56770;SDS011;42641;59.794;17.616;2024-01-30T09:54:34;37.53;;;6.47;;
56770;SDS011;42641;59.794;17.616;2024-01-30T09:57:01;64.93;;;7.97;;
56770;SDS011;42641;59.794;17.616;2024-01-30T09:59:28;47.80;;;6.77;;
56770;SDS011;42641;59.794;17.616;2024-01-30T10:01:54;54.20;;;8.37;;
56770;SDS011;42641;59.794;17.616;2024-01-30T10:04:21;35.67;;;6.57;;
56770;SDS011;42641;59.794;17.616;2024-01-30T10:06:47;48.00;;;6.57;;
56770;SDS011;42641;59.794;17.616;2024-01-30T10:09:13;31.87;;;6.47;;
56770;SDS011;42641;59.794;17.616;2024-01-30T10:11:40;33.20;;;6.20;;
56770;SDS011;42641;59.794;17.616;2024-01-30T10:14:06;25.90;;;6.30;;
56770;SDS011;42641;59.794;17.616;2024-01-30T10:16:34;30.80;;;7.40;;
56770;SDS011;42641;59.794;17.616;2024-01-30T10:19:00;68.73;;;7.57;;
56770;SDS011;42641;59.794;17.616;2024-01-30T10:21:27;25.77;;;5.83;;
56770;SDS011;42641;59.794;17.616;2024-01-30T10:23:53;42.87;;;6.43;;
56770;SDS011;42641;59.794;17.616;2024-01-30T10:26:19;30.00;;;5.57;;
56770;SDS011;42641;59.794;17.616;2024-01-30T10:28:47;35.63;;;6.13;;
56770;SDS011;42641;59.794;17.616;2024-01-30T10:31:16;32.87;;;6.30;;
56770;SDS011;42641;59.794;17.616;2024-01-30T10:33:44;38.50;;;6.30;;
56770;SDS011;42641;59.794;17.616;2024-01-30T10:36:13;39.07;;;6.97;;
56770;SDS011;42641;59.794;17.616;2024-01-30T10:38:42;57.13;;;6.03;;
56770;SDS011;42641;59.794;17.616;2024-01-30T10:41:12;45.10;;;6.57;;
56770;SDS011;42641;59.794;17.616;2024-01-30T10:43:41;52.40;;;6.70;;
56770;SDS011;42641;59.794;17.616;2024-01-30T10:46:12;47.13;;;7.53;;
56770;SDS011;42641;59.794;17.616;2024-01-30T10:48:46;38.00;;;6.60;;
56770;SDS011;42641;59.794;17.616;2024-01-30T10:51:22;29.20;;;5.93;;
56770;SDS011;42641;59.794;17.616;2024-01-30T10:53:49;36.67;;;6.53;;
56770;SDS011;42641;59.794;17.616;2024-01-30T10:56:16;42.03;;;6.43;;
56770;SDS011;42641;59.794;17.616;2024-01-30T10:58:43;31.53;;;6.10;;
56770;SDS011;42641;59.794;17.616;2024-01-30T11:01:10;38.63;;;7.30;;
56770;SDS011;42641;59.794;17.616;2024-01-30T11:03:37;36.30;;;6.13;;
56770;SDS011;42641;59.794;17.616;2024-01-30T11:06:04;61.87;;;6.90;;
56770;SDS011;42641;59.794;17.616;2024-01-30T11:08:31;58.27;;;6.80;;
56770;SDS011;42641;59.794;17.616;2024-01-30T11:10:58;34.83;;;6.07;;
56770;SDS011;42641;59.794;17.616;2024-01-30T11:13:28;30.63;;;6.47;;
56770;SDS011;42641;59.794;17.616;2024-01-30T11:15:55;20.73;;;5.90;;
56770;SDS011;42641;59.794;17.616;2024-01-30T11:18:32;38.43;;;8.03;;
56770;SDS011;42641;59.794;17.616;2024-01-30T11:21:01;25.97;;;6.67;;
56770;SDS011;42641;59.794;17.616;2024-01-30T11:23:28;24.40;;;5.73;;
56770;SDS011;42641;59.794;17.616;2024-01-30T11:25:55;40.67;;;7.33;;
56770;SDS011;42641;59.794;17.616;2024-01-30T11:28:22;53.47;;;8.63;;
56770;SDS011;42641;59.794;17.616;2024-01-30T11:30:49;86.30;;;11.07;;
56770;SDS011;42641;59.794;17.616;2024-01-30T11:33:30;79.70;;;10.10;;
56770;SDS011;42641;59.794;17.616;2024-01-30T11:35:57;58.70;;;7.10;;
56770;SDS011;42641;59.794;17.616;2024-01-30T11:38:32;15.87;;;6.27;;
56770;SDS011;42641;59.794;17.616;2024-01-30T11:40:59;32.73;;;6.87;;
56770;SDS011;42641;59.794;17.616;2024-01-30T11:43:26;27.03;;;6.30;;
56770;SDS011;42641;59.794;17.616;2024-01-30T11:45:52;76.93;;;9.83;;
56770;SDS011;42641;59.794;17.616;2024-01-30T11:48:19;76.00;;;10.27;;
56770;SDS011;42641;59.794;17.616;2024-01-30T11:50:45;74.10;;;9.60;;
56770;SDS011;42641;59.794;17.616;2024-01-30T11:53:12;55.17;;;9.93;;
56770;SDS011;42641;59.794;17.616;2024-01-30T11:55:39;122.20;;;15.13;;
56770;SDS011;42641;59.794;17.616;2024-01-30T11:58:05;113.37;;;14.07;;
56770;SDS011;42641;59.794;17.616;2024-01-30T12:00:32;93.83;;;13.47;;
56770;SDS011;42641;59.794;17.616;2024-01-30T12:02:59;115.70;;;12.93;;
56770;SDS011;42641;59.794;17.616;2024-01-30T12:05:26;68.70;;;9.23;;
56770;SDS011;42641;59.794;17.616;2024-01-30T12:07:53;23.13;;;8.20;;
56770;SDS011;42641;59.794;17.616;2024-01-30T12:10:20;39.67;;;10.07;;
56770;SDS011;42641;59.794;17.616;2024-01-30T12:12:50;121.17;;;14.47;;
56770;SDS011;42641;59.794;17.616;2024-01-30T12:15:17;110.70;;;14.07;;
56770;SDS011;42641;59.794;17.616;2024-01-30T12:17:44;88.77;;;12.87;;
56770;SDS011;42641;59.794;17.616;2024-01-30T12:25:05;136.67;;;14.93;;
56770;SDS011;42641;59.794;17.616;2024-01-30T12:27:38;88.60;;;12.87;;
56770;SDS011;42641;59.794;17.616;2024-01-30T12:30:06;57.40;;;9.97;;
56770;SDS011;42641;59.794;17.616;2024-01-30T12:32:34;94.73;;;12.97;;
56770;SDS011;42641;59.794;17.616;2024-01-30T12:35:02;54.13;;;10.47;;
56770;SDS011;42641;59.794;17.616;2024-01-30T12:37:32;97.47;;;13.00;;
56770;SDS011;42641;59.794;17.616;2024-01-30T12:39:58;182.47;;;16.63;;
56770;SDS011;42641;59.794;17.616;2024-01-30T12:42:26;99.93;;;13.50;;
56770;SDS011;42641;59.794;17.616;2024-01-30T12:44:53;160.50;;;18.47;;
56770;SDS011;42641;59.794;17.616;2024-01-30T12:47:23;161.60;;;16.77;;
56770;SDS011;42641;59.794;17.616;2024-01-30T12:49:49;107.43;;;14.20;;
56770;SDS011;42641;59.794;17.616;2024-01-30T12:52:19;79.20;;;12.10;;
56770;SDS011;42641;59.794;17.616;2024-01-30T12:54:47;105.80;;;14.53;;
56770;SDS011;42641;59.794;17.616;2024-01-30T12:57:14;72.00;;;11.37;;
56770;SDS011;42641;59.794;17.616;2024-01-30T12:59:40;18.50;;;8.40;;
56770;SDS011;42641;59.794;17.616;2024-01-30T13:02:07;26.20;;;7.43;;
56770;SDS011;42641;59.794;17.616;2024-01-30T13:04:34;22.33;;;6.97;;
56770;SDS011;42641;59.794;17.616;2024-01-30T13:07:01;23.33;;;7.47;;
56770;SDS011;42641;59.794;17.616;2024-01-30T13:09:29;45.27;;;8.50;;
56770;SDS011;42641;59.794;17.616;2024-01-30T13:11:57;42.23;;;9.90;;
56770;SDS011;42641;59.794;17.616;2024-01-30T13:14:24;163.77;;;15.60;;
56770;SDS011;42641;59.794;17.616;2024-01-30T13:16:50;57.47;;;11.33;;
56770;SDS011;42641;59.794;17.616;2024-01-30T13:19:17;40.27;;;10.03;;
56770;SDS011;42641;59.794;17.616;2024-01-30T13:21:44;170.00;;;18.57;;
56770;SDS011;42641;59.794;17.616;2024-01-30T13:24:10;123.20;;;16.80;;
56770;SDS011;42641;59.794;17.616;2024-01-30T13:26:36;235.30;;;22.00;;
56770;SDS011;42641;59.794;17.616;2024-01-30T13:29:03;147.40;;;16.80;;
56770;SDS011;42641;59.794;17.616;2024-01-30T13:31:29;183.90;;;18.83;;
56770;SDS011;42641;59.794;17.616;2024-01-30T13:33:56;52.93;;;10.20;;
56770;SDS011;42641;59.794;17.616;2024-01-30T13:36:22;130.73;;;15.90;;
56770;SDS011;42641;59.794;17.616;2024-01-30T13:38:49;149.67;;;18.03;;
56770;SDS011;42641;59.794;17.616;2024-01-30T13:41:15;97.10;;;14.97;;
56770;SDS011;42641;59.794;17.616;2024-01-30T13:43:43;71.90;;;12.23;;
56770;SDS011;42641;59.794;17.616;2024-01-30T13:46:10;113.63;;;15.67;;
56770;SDS011;42641;59.794;17.616;2024-01-30T13:48:37;73.27;;;12.40;;
56770;SDS011;42641;59.794;17.616;2024-01-30T13:51:03;115.80;;;15.17;;
56770;SDS011;42641;59.794;17.616;2024-01-30T13:53:29;94.77;;;14.97;;
56770;SDS011;42641;59.794;17.616;2024-01-30T13:55:56;80.93;;;14.67;;
56770;SDS011;42641;59.794;17.616;2024-01-30T13:58:22;129.17;;;17.10;;
56770;SDS011;42641;59.794;17.616;2024-01-30T14:00:49;349.93;;;24.53;;
56770;SDS011;42641;59.794;17.616;2024-01-30T14:03:15;246.07;;;22.13;;
56770;SDS011;42641;59.794;17.616;2024-01-30T14:05:41;84.73;;;13.47;;
56770;SDS011;42641;59.794;17.616;2024-01-30T14:08:08;228.07;;;23.60;;
56770;SDS011;42641;59.794;17.616;2024-01-30T14:10:34;257.63;;;23.93;;
56770;SDS011;42641;59.794;17.616;2024-01-30T14:13:00;169.30;;;19.30;;
56770;SDS011;42641;59.794;17.616;2024-01-30T14:15:27;263.63;;;24.77;;
56770;SDS011;42641;59.794;17.616;2024-01-30T14:17:54;119.97;;;15.20;;